sensor_id;sensor_type;location;lat;lon;timestamp;P1;durP1;ratioP1;P2;durP2;ratioP2
4676;SDS011;2352;48.180;11.478;2023-02-11T00:02:44;36.13;;;26.07;;
4676;SDS011;2352;48.180;11.478;2023-02-11T00:05:55;34.53;;;25.87;;
4676;SDS011;2352;48.180;11.478;2023-02-11T00:09:00;32.13;;;24.37;;
4676;SDS011;2352;48.180;11.478;2023-02-11T00:12:03;36.13;;;27.07;;
4676;SDS011;2352;48.180;11.478;2023-02-11T00:15:07;34.30;;;25.63;;
4676;SDS011;2352;48.180;11.478;2023-02-11T00:18:11;30.67;;;25.50;;
4676;SDS011;2352;48.180;11.478;2023-02-11T00:21:14;31.13;;;25.73;;
4676;SDS011;2352;48.180;11.478;2023-02-11T00:24:20;32.13;;;24.97;;
4676;SDS011;2352;48.180;11.478;2023-02-11T00:27:22;34.83;;;26.13;;
4676;SDS011;2352;48.180;11.478;2023-02-11T00:30:25;33.43;;;27.33;;
4676;SDS011;2352;48.180;11.478;2023-02-11T00:33:28;30.30;;;25.87;;
4676;SDS011;2352;48.180;11.478;2023-02-11T00:36:31;36.70;;;26.90;;
4676;SDS011;2352;48.180;11.478;2023-02-11T00:39:35;34.07;;;26.37;;
4676;SDS011;2352;48.180;11.478;2023-02-11T00:42:38;33.70;;;26.50;;
4676;SDS011;2352;48.180;11.478;2023-02-11T00:45:41;37.50;;;26.67;;
4676;SDS011;2352;48.180;11.478;2023-02-11T00:48:44;29.57;;;25.10;;
4676;SDS011;2352;48.180;11.478;2023-02-11T00:51:46;34.87;;;27.03;;
4676;SDS011;2352;48.180;11.478;2023-02-11T00:54:51;32.07;;;25.70;;
4676;SDS011;2352;48.180;11.478;2023-02-11T00:57:53;29.87;;;25.03;;
4676;SDS011;2352;48.180;11.478;2023-02-11T01:00:56;30.80;;;25.30;;
4676;SDS011;2352;48.180;11.478;2023-02-11T01:03:59;30.40;;;24.60;;
4676;SDS011;2352;48.180;11.478;2023-02-11T01:07:02;30.87;;;24.67;;
4676;SDS011;2352;48.180;11.478;2023-02-11T01:10:06;30.17;;;24.03;;
4676;SDS011;2352;48.180;11.478;2023-02-11T01:13:09;35.17;;;25.40;;
4676;SDS011;2352;48.180;11.478;2023-02-11T01:16:12;31.23;;;25.20;;
4676;SDS011;2352;48.180;11.478;2023-02-11T01:19:16;26.80;;;23.90;;
4676;SDS011;2352;48.180;11.478;2023-02-11T01:22:19;30.97;;;25.37;;
4676;SDS011;2352;48.180;11.478;2023-02-11T01:25:23;29.47;;;24.23;;
4676;SDS011;2352;48.180;11.478;2023-02-11T01:28:26;27.80;;;23.83;;
4676;SDS011;2352;48.180;11.478;2023-02-11T01:31:31;30.63;;;24.67;;
4676;SDS011;2352;48.180;11.478;2023-02-11T01:34:34;28.30;;;23.67;;
4676;SDS011;2352;48.180;11.478;2023-02-11T01:37:36;33.47;;;24.33;;
4676;SDS011;2352;48.180;11.478;2023-02-11T01:40:44;33.57;;;25.13;;
4676;SDS011;2352;48.180;11.478;2023-02-11T01:43:48;29.17;;;24.87;;
4676;SDS011;2352;48.180;11.478;2023-02-11T01:46:51;30.40;;;24.43;;
4676;SDS011;2352;48.180;11.478;2023-02-11T01:49:56;25.00;;;22.27;;
4676;SDS011;2352;48.180;11.478;2023-02-11T01:53:02;29.60;;;24.20;;
4676;SDS011;2352;48.180;11.478;2023-02-11T01:56:21;25.80;;;22.97;;
4676;SDS011;2352;48.180;11.478;2023-02-11T01:59:44;27.13;;;22.47;;
4676;SDS011;2352;48.180;11.478;2023-02-11T02:02:53;27.13;;;22.93;;
4676;SDS011;2352;48.180;11.478;2023-02-11T02:06:00;24.30;;;21.73;;
4676;SDS011;2352;48.180;11.478;2023-02-11T02:09:10;33.73;;;23.47;;
4676;SDS011;2352;48.180;11.478;2023-02-11T02:12:19;27.80;;;21.93;;
4676;SDS011;2352;48.180;11.478;2023-02-11T02:15:31;28.27;;;23.23;;
4676;SDS011;2352;48.180;11.478;2023-02-11T02:18:35;25.53;;;22.17;;
4676;SDS011;2352;48.180;11.478;2023-02-11T02:22:04;26.10;;;22.03;;
4676;SDS011;2352;48.180;11.478;2023-02-11T02:25:35;25.47;;;21.73;;
4676;SDS011;2352;48.180;11.478;2023-02-11T02:29:04;25.53;;;21.93;;
4676;SDS011;2352;48.180;11.478;2023-02-11T02:36:01;23.10;;;20.60;;
4676;SDS011;2352;48.180;11.478;2023-02-11T02:39:10;26.33;;;22.00;;
4676;SDS011;2352;48.180;11.478;2023-02-11T02:42:19;25.37;;;21.83;;
4676;SDS011;2352;48.180;11.478;2023-02-11T02:45:23;23.53;;;21.03;;
4676;SDS011;2352;48.180;11.478;2023-02-11T02:48:28;25.33;;;21.03;;
4676;SDS011;2352;48.180;11.478;2023-02-11T02:51:45;25.13;;;20.03;;
4676;SDS011;2352;48.180;11.478;2023-02-11T02:55:06;22.60;;;20.20;;
4676;SDS011;2352;48.180;11.478;2023-02-11T02:58:24;23.80;;;19.50;;
4676;SDS011;2352;48.180;11.478;2023-02-11T03:01:41;25.03;;;20.17;;
4676;SDS011;2352;48.180;11.478;2023-02-11T03:04:57;24.13;;;19.63;;
4676;SDS011;2352;48.180;11.478;2023-02-11T03:08:05;22.23;;;19.43;;
4676;SDS011;2352;48.180;11.478;2023-02-11T03:11:11;21.27;;;19.27;;
4676;SDS011;2352;48.180;11.478;2023-02-11T03:14:18;23.37;;;19.23;;
4676;SDS011;2352;48.180;11.478;2023-02-11T03:17:23;19.57;;;17.57;;
4676;SDS011;2352;48.180;11.478;2023-02-11T03:20:30;20.43;;;17.77;;
4676;SDS011;2352;48.180;11.478;2023-02-11T03:23:38;23.60;;;18.20;;
4676;SDS011;2352;48.180;11.478;2023-02-11T03:26:45;20.37;;;17.73;;
4676;SDS011;2352;48.180;11.478;2023-02-11T03:29:52;19.87;;;17.20;;
4676;SDS011;2352;48.180;11.478;2023-02-11T03:32:59;17.70;;;15.90;;
4676;SDS011;2352;48.180;11.478;2023-02-11T03:36:08;17.90;;;16.10;;
4676;SDS011;2352;48.180;11.478;2023-02-11T03:39:18;17.83;;;16.23;;
4676;SDS011;2352;48.180;11.478;2023-02-11T03:42:25;17.03;;;15.33;;
4676;SDS011;2352;48.180;11.478;2023-02-11T03:45:31;17.33;;;15.67;;
4676;SDS011;2352;48.180;11.478;2023-02-11T03:48:35;17.97;;;16.17;;
4676;SDS011;2352;48.180;11.478;2023-02-11T03:51:43;20.67;;;16.20;;
4676;SDS011;2352;48.180;11.478;2023-02-11T03:54:47;18.10;;;16.17;;
4676;SDS011;2352;48.180;11.478;2023-02-11T03:57:52;17.40;;;15.70;;
4676;SDS011;2352;48.180;11.478;2023-02-11T04:00:55;16.30;;;14.80;;
4676;SDS011;2352;48.180;11.478;2023-02-11T04:03:58;17.33;;;15.70;;
4676;SDS011;2352;48.180;11.478;2023-02-11T04:07:02;15.90;;;14.40;;
4676;SDS011;2352;48.180;11.478;2023-02-11T04:10:05;17.97;;;15.93;;
4676;SDS011;2352;48.180;11.478;2023-02-11T04:13:09;18.23;;;15.80;;
4676;SDS011;2352;48.180;11.478;2023-02-11T04:16:12;15.57;;;14.17;;
4676;SDS011;2352;48.180;11.478;2023-02-11T04:19:14;15.77;;;14.27;;
4676;SDS011;2352;48.180;11.478;2023-02-11T04:22:19;16.57;;;14.87;;
4676;SDS011;2352;48.180;11.478;2023-02-11T04:25:21;15.23;;;13.63;;
4676;SDS011;2352;48.180;11.478;2023-02-11T04:28:26;15.23;;;13.63;;
4676;SDS011;2352;48.180;11.478;2023-02-11T04:31:29;16.43;;;13.97;;
4676;SDS011;2352;48.180;11.478;2023-02-11T04:34:32;16.20;;;14.50;;
4676;SDS011;2352;48.180;11.478;2023-02-11T04:37:36;14.57;;;13.07;;
4676;SDS011;2352;48.180;11.478;2023-02-11T04:40:39;15.23;;;13.73;;
4676;SDS011;2352;48.180;11.478;2023-02-11T04:43:42;14.07;;;12.67;;
4676;SDS011;2352;48.180;11.478;2023-02-11T04:46:45;15.37;;;14.00;;
4676;SDS011;2352;48.180;11.478;2023-02-11T04:49:48;16.73;;;15.03;;
4676;SDS011;2352;48.180;11.478;2023-02-11T04:52:52;16.40;;;14.90;;
4676;SDS011;2352;48.180;11.478;2023-02-11T04:55:55;17.07;;;15.33;;
4676;SDS011;2352;48.180;11.478;2023-02-11T04:58:58;19.57;;;15.37;;
4676;SDS011;2352;48.180;11.478;2023-02-11T05:02:01;16.80;;;15.20;;
4676;SDS011;2352;48.180;11.478;2023-02-11T05:05:04;16.50;;;14.77;;
4676;SDS011;2352;48.180;11.478;2023-02-11T05:08:09;16.47;;;14.83;;
4676;SDS011;2352;48.180;11.478;2023-02-11T05:11:13;17.03;;;15.23;;
4676;SDS011;2352;48.180;11.478;2023-02-11T05:14:17;16.70;;;15.03;;
4676;SDS011;2352;48.180;11.478;2023-02-11T05:17:20;16.03;;;14.10;;
4676;SDS011;2352;48.180;11.478;2023-02-11T05:20:23;15.87;;;14.37;;
4676;SDS011;2352;48.180;11.478;2023-02-11T05:23:27;14.80;;;13.43;;
4676;SDS011;2352;48.180;11.478;2023-02-11T05:26:29;17.37;;;15.67;;
4676;SDS011;2352;48.180;11.478;2023-02-11T05:29:33;17.10;;;15.30;;
4676;SDS011;2352;48.180;11.478;2023-02-11T05:32:36;16.57;;;14.83;;
4676;SDS011;2352;48.180;11.478;2023-02-11T05:35:38;16.20;;;14.53;;
4676;SDS011;2352;48.180;11.478;2023-02-11T05:38:42;16.13;;;14.53;;
4676;SDS011;2352;48.180;11.478;2023-02-11T05:41:45;17.57;;;14.80;;
4676;SDS011;2352;48.180;11.478;2023-02-11T05:44:48;15.87;;;14.27;;
4676;SDS011;2352;48.180;11.478;2023-02-11T05:47:51;15.43;;;13.80;;
4676;SDS011;2352;48.180;11.478;2023-02-11T05:50:54;14.63;;;13.27;;
4676;SDS011;2352;48.180;11.478;2023-02-11T05:53:58;14.67;;;13.07;;
4676;SDS011;2352;48.180;11.478;2023-02-11T05:57:01;16.13;;;14.57;;
4676;SDS011;2352;48.180;11.478;2023-02-11T06:00:04;14.20;;;12.80;;
4676;SDS011;2352;48.180;11.478;2023-02-11T06:03:08;11.93;;;11.00;;
4676;SDS011;2352;48.180;11.478;2023-02-11T06:06:10;13.07;;;11.67;;
4676;SDS011;2352;48.180;11.478;2023-02-11T06:09:15;13.53;;;12.23;;
4676;SDS011;2352;48.180;11.478;2023-02-11T06:12:17;12.83;;;11.63;;
4676;SDS011;2352;48.180;11.478;2023-02-11T06:15:20;12.97;;;11.77;;
4676;SDS011;2352;48.180;11.478;2023-02-11T06:18:23;11.90;;;10.70;;
4676;SDS011;2352;48.180;11.478;2023-02-11T06:21:26;12.20;;;10.97;;
4676;SDS011;2352;48.180;11.478;2023-02-11T06:24:45;11.20;;;10.20;;
4676;SDS011;2352;48.180;11.478;2023-02-11T06:28:01;10.87;;;9.93;;
4676;SDS011;2352;48.180;11.478;2023-02-11T06:31:05;11.47;;;10.30;;
4676;SDS011;2352;48.180;11.478;2023-02-11T06:34:10;11.93;;;10.90;;
4676;SDS011;2352;48.180;11.478;2023-02-11T06:37:12;10.43;;;9.43;;
4676;SDS011;2352;48.180;11.478;2023-02-11T06:40:17;12.20;;;11.07;;
4676;SDS011;2352;48.180;11.478;2023-02-11T06:43:20;11.27;;;10.27;;
4676;SDS011;2352;48.180;11.478;2023-02-11T06:46:23;11.93;;;10.83;;
4676;SDS011;2352;48.180;11.478;2023-02-11T06:49:26;12.03;;;10.83;;
4676;SDS011;2352;48.180;11.478;2023-02-11T06:52:29;13.73;;;12.43;;
4676;SDS011;2352;48.180;11.478;2023-02-11T06:55:34;13.53;;;12.33;;
4676;SDS011;2352;48.180;11.478;2023-02-11T06:58:37;12.23;;;10.53;;
4676;SDS011;2352;48.180;11.478;2023-02-11T07:01:40;9.97;;;8.97;;
4676;SDS011;2352;48.180;11.478;2023-02-11T07:04:43;12.93;;;10.17;;
4676;SDS011;2352;48.180;11.478;2023-02-11T07:07:46;9.83;;;9.13;;
4676;SDS011;2352;48.180;11.478;2023-02-11T07:10:50;9.53;;;8.70;;
4676;SDS011;2352;48.180;11.478;2023-02-11T07:13:54;10.43;;;9.53;;
4676;SDS011;2352;48.180;11.478;2023-02-11T07:16:58;13.10;;;11.30;;
4676;SDS011;2352;48.180;11.478;2023-02-11T07:20:01;11.53;;;10.50;;
4676;SDS011;2352;48.180;11.478;2023-02-11T07:23:04;10.47;;;9.40;;
4676;SDS011;2352;48.180;11.478;2023-02-11T07:26:09;11.33;;;10.03;;
4676;SDS011;2352;48.180;11.478;2023-02-11T07:29:13;10.63;;;9.63;;
4676;SDS011;2352;48.180;11.478;2023-02-11T07:32:16;10.40;;;9.50;;
4676;SDS011;2352;48.180;11.478;2023-02-11T07:35:19;13.17;;;9.77;;
4676;SDS011;2352;48.180;11.478;2023-02-11T07:38:21;11.40;;;9.53;;
4676;SDS011;2352;48.180;11.478;2023-02-11T07:41:25;10.47;;;9.37;;
4676;SDS011;2352;48.180;11.478;2023-02-11T07:44:28;13.07;;;8.87;;
4676;SDS011;2352;48.180;11.478;2023-02-11T07:47:33;9.30;;;8.23;;
4676;SDS011;2352;48.180;11.478;2023-02-11T07:50:36;9.13;;;8.33;;
4676;SDS011;2352;48.180;11.478;2023-02-11T07:53:39;10.40;;;9.43;;
4676;SDS011;2352;48.180;11.478;2023-02-11T07:56:43;9.07;;;8.20;;
4676;SDS011;2352;48.180;11.478;2023-02-11T07:59:46;9.40;;;8.60;;
4676;SDS011;2352;48.180;11.478;2023-02-11T08:02:49;10.60;;;8.60;;
4676;SDS011;2352;48.180;11.478;2023-02-11T08:05:52;9.10;;;8.20;;
4676;SDS011;2352;48.180;11.478;2023-02-11T08:08:55;9.77;;;7.33;;
4676;SDS011;2352;48.180;11.478;2023-02-11T08:11:59;9.10;;;8.37;;
4676;SDS011;2352;48.180;11.478;2023-02-11T08:15:02;9.47;;;8.57;;
4676;SDS011;2352;48.180;11.478;2023-02-11T08:18:05;9.10;;;8.10;;
4676;SDS011;2352;48.180;11.478;2023-02-11T08:21:09;9.87;;;8.83;;
4676;SDS011;2352;48.180;11.478;2023-02-11T08:24:12;9.27;;;8.40;;
4676;SDS011;2352;48.180;11.478;2023-02-11T08:27:16;9.43;;;8.50;;
4676;SDS011;2352;48.180;11.478;2023-02-11T08:30:19;9.27;;;8.47;;
4676;SDS011;2352;48.180;11.478;2023-02-11T08:33:22;11.10;;;10.10;;
4676;SDS011;2352;48.180;11.478;2023-02-11T08:36:25;9.43;;;8.63;;
4676;SDS011;2352;48.180;11.478;2023-02-11T08:39:30;8.77;;;7.97;;
4676;SDS011;2352;48.180;11.478;2023-02-11T08:42:34;11.27;;;10.10;;
4676;SDS011;2352;48.180;11.478;2023-02-11T08:45:37;9.87;;;8.80;;
4676;SDS011;2352;48.180;11.478;2023-02-11T08:48:40;11.17;;;10.17;;
4676;SDS011;2352;48.180;11.478;2023-02-11T08:51:43;9.43;;;8.57;;
4676;SDS011;2352;48.180;11.478;2023-02-11T08:54:46;10.07;;;9.13;;
4676;SDS011;2352;48.180;11.478;2023-02-11T08:57:50;9.83;;;9.03;;
4676;SDS011;2352;48.180;11.478;2023-02-11T09:00:53;10.53;;;9.20;;
4676;SDS011;2352;48.180;11.478;2023-02-11T09:03:57;10.87;;;9.87;;
4676;SDS011;2352;48.180;11.478;2023-02-11T09:07:01;12.23;;;11.07;;
4676;SDS011;2352;48.180;11.478;2023-02-11T09:10:05;13.17;;;11.87;;
4676;SDS011;2352;48.180;11.478;2023-02-11T09:13:10;20.87;;;14.97;;
4676;SDS011;2352;48.180;11.478;2023-02-11T09:16:15;15.43;;;13.73;;
4676;SDS011;2352;48.180;11.478;2023-02-11T09:19:19;15.67;;;13.97;;
4676;SDS011;2352;48.180;11.478;2023-02-11T09:22:23;19.87;;;11.47;;
4676;SDS011;2352;48.180;11.478;2023-02-11T09:25:26;17.33;;;12.20;;
4676;SDS011;2352;48.180;11.478;2023-02-11T09:28:30;11.93;;;10.83;;
4676;SDS011;2352;48.180;11.478;2023-02-11T09:31:33;15.00;;;12.53;;
4676;SDS011;2352;48.180;11.478;2023-02-11T09:34:36;15.77;;;12.53;;
4676;SDS011;2352;48.180;11.478;2023-02-11T09:37:39;13.83;;;12.50;;
4676;SDS011;2352;48.180;11.478;2023-02-11T09:40:43;14.23;;;12.37;;
4676;SDS011;2352;48.180;11.478;2023-02-11T09:43:48;21.10;;;12.53;;
4676;SDS011;2352;48.180;11.478;2023-02-11T09:46:54;15.00;;;13.43;;
4676;SDS011;2352;48.180;11.478;2023-02-11T09:50:00;18.37;;;13.50;;
4676;SDS011;2352;48.180;11.478;2023-02-11T09:53:08;20.00;;;15.50;;
4676;SDS011;2352;48.180;11.478;2023-02-11T09:56:16;24.48;;;19.15;;
4676;SDS011;2352;48.180;11.478;2023-02-11T09:59:20;14.67;;;13.17;;
4676;SDS011;2352;48.180;11.478;2023-02-11T10:02:25;23.07;;;15.43;;
4676;SDS011;2352;48.180;11.478;2023-02-11T10:05:44;18.87;;;14.93;;
4676;SDS011;2352;48.180;11.478;2023-02-11T10:12:42;15.83;;;13.37;;
4676;SDS011;2352;48.180;11.478;2023-02-11T10:15:58;16.47;;;13.27;;
4676;SDS011;2352;48.180;11.478;2023-02-11T10:19:14;29.30;;;14.30;;
4676;SDS011;2352;48.180;11.478;2023-02-11T10:22:30;18.93;;;14.70;;
4676;SDS011;2352;48.180;11.478;2023-02-11T10:25:38;17.73;;;13.90;;
4676;SDS011;2352;48.180;11.478;2023-02-11T10:28:46;15.93;;;12.63;;
4676;SDS011;2352;48.180;11.478;2023-02-11T10:31:53;15.80;;;13.37;;
4676;SDS011;2352;48.180;11.478;2023-02-11T10:34:59;15.23;;;13.63;;
4676;SDS011;2352;48.180;11.478;2023-02-11T10:38:04;18.40;;;13.80;;
4676;SDS011;2352;48.180;11.478;2023-02-11T10:41:08;14.77;;;12.53;;
4676;SDS011;2352;48.180;11.478;2023-02-11T10:44:23;15.03;;;11.90;;
4676;SDS011;2352;48.180;11.478;2023-02-11T10:47:32;18.93;;;12.17;;
4676;SDS011;2352;48.180;11.478;2023-02-11T10:50:39;16.77;;;12.87;;
4676;SDS011;2352;48.180;11.478;2023-02-11T10:53:42;20.53;;;13.20;;
4676;SDS011;2352;48.180;11.478;2023-02-11T10:56:46;15.27;;;11.93;;
4676;SDS011;2352;48.180;11.478;2023-02-11T10:59:54;14.20;;;11.50;;
4676;SDS011;2352;48.180;11.478;2023-02-11T11:03:01;14.30;;;12.80;;
4676;SDS011;2352;48.180;11.478;2023-02-11T11:06:07;16.57;;;13.33;;
4676;SDS011;2352;48.180;11.478;2023-02-11T11:09:15;17.67;;;13.40;;
4676;SDS011;2352;48.180;11.478;2023-02-11T11:12:31;17.20;;;11.93;;
4676;SDS011;2352;48.180;11.478;2023-02-11T11:15:36;19.50;;;12.37;;
4676;SDS011;2352;48.180;11.478;2023-02-11T11:18:41;19.73;;;13.40;;
4676;SDS011;2352;48.180;11.478;2023-02-11T11:21:45;14.47;;;12.13;;
4676;SDS011;2352;48.180;11.478;2023-02-11T11:24:50;15.40;;;13.13;;
4676;SDS011;2352;48.180;11.478;2023-02-11T11:27:55;14.80;;;13.20;;
4676;SDS011;2352;48.180;11.478;2023-02-11T11:31:00;17.13;;;14.43;;
4676;SDS011;2352;48.180;11.478;2023-02-11T11:34:12;18.70;;;13.53;;
4676;SDS011;2352;48.180;11.478;2023-02-11T11:37:25;14.63;;;11.87;;
4676;SDS011;2352;48.180;11.478;2023-02-11T11:40:30;15.57;;;12.50;;
4676;SDS011;2352;48.180;11.478;2023-02-11T11:43:34;14.37;;;12.87;;
4676;SDS011;2352;48.180;11.478;2023-02-11T11:46:39;13.57;;;12.17;;
4676;SDS011;2352;48.180;11.478;2023-02-11T11:49:46;16.53;;;12.63;;
4676;SDS011;2352;48.180;11.478;2023-02-11T11:52:59;13.80;;;12.33;;
4676;SDS011;2352;48.180;11.478;2023-02-11T11:56:05;14.60;;;12.77;;
4676;SDS011;2352;48.180;11.478;2023-02-11T11:59:13;11.93;;;10.80;;
4676;SDS011;2352;48.180;11.478;2023-02-11T12:02:22;17.63;;;10.97;;
4676;SDS011;2352;48.180;11.478;2023-02-11T12:05:47;15.00;;;12.40;;
4676;SDS011;2352;48.180;11.478;2023-02-11T12:09:03;15.90;;;11.83;;
4676;SDS011;2352;48.180;11.478;2023-02-11T12:12:17;15.53;;;11.47;;
4676;SDS011;2352;48.180;11.478;2023-02-11T12:15:33;15.27;;;11.87;;
4676;SDS011;2352;48.180;11.478;2023-02-11T12:18:48;17.37;;;12.13;;
4676;SDS011;2352;48.180;11.478;2023-02-11T12:22:11;11.67;;;10.60;;
4676;SDS011;2352;48.180;11.478;2023-02-11T12:25:26;18.43;;;11.50;;
4676;SDS011;2352;48.180;11.478;2023-02-11T12:28:34;13.40;;;11.93;;
4676;SDS011;2352;48.180;11.478;2023-02-11T12:31:45;11.57;;;10.47;;
4676;SDS011;2352;48.180;11.478;2023-02-11T12:35:00;11.07;;;10.07;;
4676;SDS011;2352;48.180;11.478;2023-02-11T12:38:27;15.40;;;12.00;;
4676;SDS011;2352;48.180;11.478;2023-02-11T12:41:44;14.67;;;11.23;;
4676;SDS011;2352;48.180;11.478;2023-02-11T12:45:16;12.73;;;11.13;;
4676;SDS011;2352;48.180;11.478;2023-02-11T12:48:30;14.57;;;12.30;;
4676;SDS011;2352;48.180;11.478;2023-02-11T12:51:53;13.73;;;10.20;;
4676;SDS011;2352;48.180;11.478;2023-02-11T12:55:09;17.27;;;11.43;;
4676;SDS011;2352;48.180;11.478;2023-02-11T12:58:21;14.80;;;10.93;;
4676;SDS011;2352;48.180;11.478;2023-02-11T13:01:44;12.20;;;10.70;;
4676;SDS011;2352;48.180;11.478;2023-02-11T13:04:51;15.77;;;11.27;;
4676;SDS011;2352;48.180;11.478;2023-02-11T13:07:58;13.17;;;10.43;;
4676;SDS011;2352;48.180;11.478;2023-02-11T13:11:09;13.00;;;10.10;;
4676;SDS011;2352;48.180;11.478;2023-02-11T13:14:15;11.70;;;10.50;;
4676;SDS011;2352;48.180;11.478;2023-02-11T13:17:27;16.73;;;10.23;;
4676;SDS011;2352;48.180;11.478;2023-02-11T13:20:37;10.87;;;9.77;;
4676;SDS011;2352;48.180;11.478;2023-02-11T13:23:48;13.13;;;10.77;;
4676;SDS011;2352;48.180;11.478;2023-02-11T13:27:06;15.47;;;10.00;;
4676;SDS011;2352;48.180;11.478;2023-02-11T13:30:17;14.73;;;10.70;;
4676;SDS011;2352;48.180;11.478;2023-02-11T13:33:32;10.93;;;9.63;;
4676;SDS011;2352;48.180;11.478;2023-02-11T13:36:37;12.30;;;10.57;;
4676;SDS011;2352;48.180;11.478;2023-02-11T13:39:40;12.77;;;9.30;;
4676;SDS011;2352;48.180;11.478;2023-02-11T13:42:47;15.63;;;10.57;;
4676;SDS011;2352;48.180;11.478;2023-02-11T13:45:52;10.20;;;9.30;;
4676;SDS011;2352;48.180;11.478;2023-02-11T13:48:59;11.03;;;9.93;;
4676;SDS011;2352;48.180;11.478;2023-02-11T13:52:03;12.43;;;9.67;;
4676;SDS011;2352;48.180;11.478;2023-02-11T13:55:19;12.13;;;9.77;;
4676;SDS011;2352;48.180;11.478;2023-02-11T13:58:35;14.43;;;10.07;;
4676;SDS011;2352;48.180;11.478;2023-02-11T14:01:41;12.90;;;8.97;;
4676;SDS011;2352;48.180;11.478;2023-02-11T14:05:28;11.03;;;9.93;;
4676;SDS011;2352;48.180;11.478;2023-02-11T14:09:00;16.33;;;9.37;;
4676;SDS011;2352;48.180;11.478;2023-02-11T14:12:29;10.70;;;9.57;;
4676;SDS011;2352;48.180;11.478;2023-02-11T14:15:38;12.10;;;9.57;;
4676;SDS011;2352;48.180;11.478;2023-02-11T14:19:00;14.80;;;11.53;;
4676;SDS011;2352;48.180;11.478;2023-02-11T14:22:04;15.73;;;10.67;;
4676;SDS011;2352;48.180;11.478;2023-02-11T14:25:18;11.23;;;9.97;;
4676;SDS011;2352;48.180;11.478;2023-02-11T14:28:24;12.60;;;11.30;;
4676;SDS011;2352;48.180;11.478;2023-02-11T14:31:34;15.10;;;10.93;;
4676;SDS011;2352;48.180;11.478;2023-02-11T14:34:45;13.73;;;11.80;;
4676;SDS011;2352;48.180;11.478;2023-02-11T14:37:59;15.37;;;11.80;;
4676;SDS011;2352;48.180;11.478;2023-02-11T14:41:09;15.97;;;13.00;;
4676;SDS011;2352;48.180;11.478;2023-02-11T14:44:18;17.97;;;12.93;;
4676;SDS011;2352;48.180;11.478;2023-02-11T14:47:26;18.63;;;13.97;;
4676;SDS011;2352;48.180;11.478;2023-02-11T14:50:37;15.00;;;13.27;;
4676;SDS011;2352;48.180;11.478;2023-02-11T14:53:46;15.73;;;13.83;;
4676;SDS011;2352;48.180;11.478;2023-02-11T14:57:04;17.87;;;13.40;;
4676;SDS011;2352;48.180;11.478;2023-02-11T15:00:13;17.30;;;13.67;;
4676;SDS011;2352;48.180;11.478;2023-02-11T15:03:28;18.83;;;14.60;;
4676;SDS011;2352;48.180;11.478;2023-02-11T15:06:38;23.57;;;13.60;;
4676;SDS011;2352;48.180;11.478;2023-02-11T15:09:43;16.47;;;13.53;;
4676;SDS011;2352;48.180;11.478;2023-02-11T15:12:49;17.07;;;15.13;;
4676;SDS011;2352;48.180;11.478;2023-02-11T15:15:54;15.50;;;13.87;;
4676;SDS011;2352;48.180;11.478;2023-02-11T15:19:03;17.80;;;15.20;;
4676;SDS011;2352;48.180;11.478;2023-02-11T15:22:14;20.03;;;15.67;;
4676;SDS011;2352;48.180;11.478;2023-02-11T15:25:20;16.30;;;13.97;;
4676;SDS011;2352;48.180;11.478;2023-02-11T15:28:25;26.13;;;14.70;;
4676;SDS011;2352;48.180;11.478;2023-02-11T15:31:30;20.70;;;15.90;;
4676;SDS011;2352;48.180;11.478;2023-02-11T15:34:36;16.23;;;14.23;;
4676;SDS011;2352;48.180;11.478;2023-02-11T15:37:40;21.43;;;16.73;;
4676;SDS011;2352;48.180;11.478;2023-02-11T15:40:50;16.20;;;14.57;;
4676;SDS011;2352;48.180;11.478;2023-02-11T15:43:55;20.17;;;15.70;;
4676;SDS011;2352;48.180;11.478;2023-02-11T15:46:58;19.67;;;13.70;;
4676;SDS011;2352;48.180;11.478;2023-02-11T15:50:03;25.73;;;14.83;;
4676;SDS011;2352;48.180;11.478;2023-02-11T15:53:18;19.63;;;15.37;;
4676;SDS011;2352;48.180;11.478;2023-02-11T15:56:30;20.97;;;15.40;;
4676;SDS011;2352;48.180;11.478;2023-02-11T15:59:44;28.27;;;16.73;;
4676;SDS011;2352;48.180;11.478;2023-02-11T16:02:50;20.47;;;16.07;;
4676;SDS011;2352;48.180;11.478;2023-02-11T16:05:55;19.90;;;15.40;;
4676;SDS011;2352;48.180;11.478;2023-02-11T16:09:00;24.80;;;16.50;;
4676;SDS011;2352;48.180;11.478;2023-02-11T16:12:19;22.77;;;16.43;;
4676;SDS011;2352;48.180;11.478;2023-02-11T16:15:28;37.13;;;21.73;;
4676;SDS011;2352;48.180;11.478;2023-02-11T16:18:47;30.30;;;24.13;;
4676;SDS011;2352;48.180;11.478;2023-02-11T16:22:07;27.60;;;21.53;;
4676;SDS011;2352;48.180;11.478;2023-02-11T16:25:16;27.47;;;19.03;;
4676;SDS011;2352;48.180;11.478;2023-02-11T16:28:20;27.37;;;19.20;;
4676;SDS011;2352;48.180;11.478;2023-02-11T16:31:23;21.27;;;17.03;;
4676;SDS011;2352;48.180;11.478;2023-02-11T16:34:34;26.23;;;17.67;;
4676;SDS011;2352;48.180;11.478;2023-02-11T16:37:39;31.13;;;18.03;;
4676;SDS011;2352;48.180;11.478;2023-02-11T16:40:42;25.87;;;17.33;;
4676;SDS011;2352;48.180;11.478;2023-02-11T16:43:49;32.17;;;17.37;;
4676;SDS011;2352;48.180;11.478;2023-02-11T16:46:52;39.93;;;21.03;;
4676;SDS011;2352;48.180;11.478;2023-02-11T16:49:55;33.10;;;19.97;;
4676;SDS011;2352;48.180;11.478;2023-02-11T16:53:01;36.40;;;20.17;;
4676;SDS011;2352;48.180;11.478;2023-02-11T16:56:09;24.43;;;19.63;;
4676;SDS011;2352;48.180;11.478;2023-02-11T16:59:15;29.73;;;18.27;;
4676;SDS011;2352;48.180;11.478;2023-02-11T17:02:19;44.80;;;21.07;;
4676;SDS011;2352;48.180;11.478;2023-02-11T17:05:25;45.77;;;22.50;;
4676;SDS011;2352;48.180;11.478;2023-02-11T17:08:31;39.70;;;19.63;;
4676;SDS011;2352;48.180;11.478;2023-02-11T17:11:35;32.37;;;20.00;;
4676;SDS011;2352;48.180;11.478;2023-02-11T17:14:38;45.77;;;20.43;;
4676;SDS011;2352;48.180;11.478;2023-02-11T17:17:41;29.87;;;18.70;;
4676;SDS011;2352;48.180;11.478;2023-02-11T17:20:46;34.70;;;20.83;;
4676;SDS011;2352;48.180;11.478;2023-02-11T17:23:50;39.80;;;20.33;;
4676;SDS011;2352;48.180;11.478;2023-02-11T17:26:53;36.90;;;20.83;;
4676;SDS011;2352;48.180;11.478;2023-02-11T17:29:56;38.40;;;22.80;;
4676;SDS011;2352;48.180;11.478;2023-02-11T17:32:59;36.20;;;22.27;;
4676;SDS011;2352;48.180;11.478;2023-02-11T17:36:03;31.90;;;23.73;;
4676;SDS011;2352;48.180;11.478;2023-02-11T17:39:08;36.80;;;21.87;;
4676;SDS011;2352;48.180;11.478;2023-02-11T17:42:11;44.67;;;23.93;;
4676;SDS011;2352;48.180;11.478;2023-02-11T17:45:15;35.13;;;23.57;;
4676;SDS011;2352;48.180;11.478;2023-02-11T17:48:21;31.87;;;20.57;;
4676;SDS011;2352;48.180;11.478;2023-02-11T17:51:24;25.00;;;21.70;;
4676;SDS011;2352;48.180;11.478;2023-02-11T17:54:31;28.33;;;21.50;;
4676;SDS011;2352;48.180;11.478;2023-02-11T17:57:34;31.97;;;23.13;;
4676;SDS011;2352;48.180;11.478;2023-02-11T18:00:37;43.17;;;23.03;;
4676;SDS011;2352;48.180;11.478;2023-02-11T18:03:40;32.13;;;23.80;;
4676;SDS011;2352;48.180;11.478;2023-02-11T18:06:43;47.63;;;27.60;;
4676;SDS011;2352;48.180;11.478;2023-02-11T18:09:47;42.23;;;25.10;;
4676;SDS011;2352;48.180;11.478;2023-02-11T18:12:50;35.67;;;23.90;;
4676;SDS011;2352;48.180;11.478;2023-02-11T18:15:53;37.53;;;23.43;;
4676;SDS011;2352;48.180;11.478;2023-02-11T18:18:56;32.20;;;25.03;;
4676;SDS011;2352;48.180;11.478;2023-02-11T18:21:59;45.93;;;28.77;;
4676;SDS011;2352;48.180;11.478;2023-02-11T18:25:06;51.37;;;28.87;;
4676;SDS011;2352;48.180;11.478;2023-02-11T18:28:09;40.90;;;28.80;;
4676;SDS011;2352;48.180;11.478;2023-02-11T18:31:13;40.50;;;29.47;;
4676;SDS011;2352;48.180;11.478;2023-02-11T18:34:16;41.50;;;31.73;;
4676;SDS011;2352;48.180;11.478;2023-02-11T18:37:19;49.43;;;31.77;;
4676;SDS011;2352;48.180;11.478;2023-02-11T18:40:23;47.70;;;32.73;;
4676;SDS011;2352;48.180;11.478;2023-02-11T18:43:26;58.57;;;33.23;;